Аэропорт: Толмачёво. Новосибирск

ICAO: UNNT

METAR:
2018/05/20 23:00
UNNT 202300Z 17006MPS CAVOK 08/04 Q1019 R25/290160 R34/290160 NOSIG RMK QFE754/1006
METAR:
2018/05/20 21:21
TAF UNNT 202000Z 2021/2121 18006G12MPS 9999 BKN030CB 
      TEMPO 2021/2110 20011G16MPS -SHRA PROB40 
      TEMPO 2021/2110 -TSRA 
      BECMG 2110/2112 24007G15MPS 
      TEMPO 2110/2115 3100 -TSRA 
      BECMG 2115/2117 27003G08MPS